Time;durP1;ratioP1;P1;durP2;ratioP2;P2;SDS_P1;SDS_P2;PMS_P1;PMS_P2;Temp;Humidity;BMP_temperature;BMP_pressure;BME280_temperature;BME280_humidity;BME280_pressure;Samples;Min_cycle;Max_cycle;Signal;HPM_P1;HPM_P2
2022/10/15 00:01:57;;;;;;;11.25;4.68;;;;;;;6.55;100.00;99986.56;5172315;27;20558;-51
2022/10/15 00:04:24;;;;;;;10.68;4.60;;;;;;;6.65;100.00;99988.19;5172108;27;20090;-50
2022/10/15 00:06:50;;;;;;;9.82;4.88;;;;;;;6.41;100.00;99987.84;5172183;27;20046;-48
2022/10/15 00:09:16;;;;;;;8.70;4.50;;;;;;;6.64;100.00;99977.63;5171887;27;20075;-48
2022/10/15 00:11:42;;;;;;;12.02;5.20;;;;;;;6.66;100.00;99994.44;5172032;27;20046;-50
2022/10/15 00:14:08;;;;;;;9.73;4.43;;;;;;;6.46;100.00;100001.28;5172206;27;20054;-52
2022/10/15 00:16:35;;;;;;;8.95;5.07;;;;;;;6.64;100.00;99986.59;5172246;27;20046;-50
2022/10/15 00:19:01;;;;;;;13.98;5.78;;;;;;;6.58;100.00;100006.94;5171971;27;20042;-52
2022/10/15 00:21:28;;;;;;;11.68;4.63;;;;;;;6.34;100.00;100000.00;5172131;27;20046;-49
2022/10/15 00:23:55;;;;;;;10.93;4.10;;;;;;;6.47;100.00;99984.66;5172190;27;20059;-48
2022/10/15 00:26:23;;;;;;;8.07;4.97;;;;;;;6.22;100.00;99988.88;5172103;27;20046;-48
2022/10/15 00:28:51;;;;;;;11.63;4.45;;;;;;;6.13;100.00;99972.53;5171833;27;20050;-52
2022/10/15 00:31:19;;;;;;;9.07;5.15;;;;;;;6.24;100.00;99964.88;5171740;27;20054;-50
2022/10/15 00:33:47;;;;;;;9.82;4.80;;;;;;;6.34;100.00;99961.06;5171858;27;20057;-48
2022/10/15 00:36:16;;;;;;;12.07;5.72;;;;;;;6.30;100.00;99974.50;5171627;27;20057;-48
2022/10/15 00:38:43;;;;;;;11.43;4.88;;;;;;;6.24;100.00;99972.25;5172035;27;20046;-51
2022/10/15 00:41:15;;;;;;;9.73;4.32;;;;;;;6.25;100.00;99969.19;5175561;27;20171;-52
2022/10/15 00:43:43;;;;;;;9.45;4.95;;;;;;;6.20;100.00;99961.19;5175836;27;20602;-50
2022/10/15 00:46:20;;;;;;;7.03;4.40;;;;;;;6.10;100.00;99965.00;5175583;27;20054;-52
2022/10/15 00:48:49;;;;;;;9.60;4.78;;;;;;;6.16;100.00;99954.75;5175415;27;20046;-48
2022/10/15 00:51:18;;;;;;;11.13;4.88;;;;;;;6.05;100.00;99956.16;5175347;27;20055;-49
2022/10/15 00:53:46;;;;;;;12.65;6.28;;;;;;;6.17;100.00;99944.69;5175380;27;20102;-49
2022/10/15 00:56:15;;;;;;;13.48;5.82;;;;;;;5.99;100.00;99951.97;5175514;27;20046;-49
2022/10/15 00:58:42;;;;;;;11.18;4.72;;;;;;;5.91;100.00;99915.44;5175127;27;20053;-48
2022/10/15 01:01:08;;;;;;;12.35;5.70;;;;;;;6.09;100.00;99913.56;5175123;27;20050;-50
2022/10/15 01:03:35;;;;;;;13.35;5.45;;;;;;;5.99;100.00;99916.59;5174998;27;20052;-48
2022/10/15 01:06:02;;;;;;;11.88;5.82;;;;;;;5.99;100.00;99911.16;5175279;27;20408;-48
2022/10/15 01:08:29;;;;;;;11.32;5.05;;;;;;;5.99;100.00;99916.59;5174969;27;20054;-50
2022/10/15 01:11:02;;;;;;;10.63;5.72;;;;;;;5.95;100.00;99910.97;5174777;27;20046;-48
2022/10/15 01:13:36;;;;;;;7.25;4.80;;;;;;;5.88;100.00;99919.56;5174978;27;20513;-51
2022/10/15 01:16:10;;;;;;;12.27;5.13;;;;;;;5.72;100.00;99914.88;5174977;27;20516;-48
2022/10/15 01:18:39;;;;;;;;;;;;;;;5.88;100.00;99899.72;5175239;27;20050;-48
2022/10/15 01:21:13;;;;;;;12.55;5.28;;;;;;;5.52;100.00;99878.94;5174916;27;19923;-49
2022/10/15 01:24:13;;;;;;;6.95;4.45;;;;;;;5.87;100.00;99860.03;5174843;27;20472;-50
2022/10/15 01:27:14;;;;;;;7.50;4.72;;;;;;;5.82;100.00;99865.59;5174668;27;20501;-51
2022/10/15 01:29:56;;;;;;;15.38;6.22;;;;;;;5.68;100.00;99884.78;5141020;27;20072;-48
2022/10/15 01:32:26;;;;;;;10.02;5.72;;;;;;;5.81;100.00;99883.84;5174484;27;20050;-48
2022/10/15 01:34:59;;;;;;;14.35;5.63;;;;;;;5.71;100.00;99884.16;5174932;27;20046;-48
2022/10/15 01:37:35;;;;;;;15.48;5.53;;;;;;;5.77;100.00;99882.88;5174555;27;20417;-47
2022/10/15 01:40:06;;;;;;;10.02;4.53;;;;;;;5.79;100.00;99896.97;5174754;27;20056;-51
2022/10/15 01:42:38;;;;;;;7.80;4.63;;;;;;;5.77;100.00;99915.53;5174476;27;20046;-50
2022/10/15 01:45:09;;;;;;;9.85;5.05;;;;;;;5.79;100.00;99913.28;5174363;27;20501;-49
2022/10/15 01:47:42;;;;;;;8.95;5.28;;;;;;;5.69;100.00;99915.50;5174513;27;20049;-50
2022/10/15 01:50:11;;;;;;;15.55;5.78;;;;;;;5.70;100.00;99919.81;5174027;27;20050;-49
2022/10/15 01:52:39;;;;;;;9.23;5.10;;;;;;;5.57;100.00;99919.63;5174333;27;20057;-50
2022/10/15 01:55:10;;;;;;;14.98;5.13;;;;;;;5.57;100.00;99903.28;5174441;27;20058;-48
2022/10/15 01:57:38;;;;;;;14.40;5.75;;;;;;;5.57;100.00;99908.75;5174140;27;20454;-53
2022/10/15 02:00:05;;;;;;;13.02;5.68;;;;;;;5.55;100.00;99907.44;5174265;27;20507;-50
2022/10/15 02:02:31;;;;;;;9.85;4.82;;;;;;;5.45;100.00;99902.28;5173767;27;20406;-48
2022/10/15 02:04:58;;;;;;;14.80;5.55;;;;;;;5.50;100.00;99889.34;5174278;27;20042;-49
2022/10/15 02:07:34;;;;;;;9.98;5.40;;;;;;;5.53;100.00;99893.34;5174326;27;20042;-51
2022/10/15 02:10:08;;;;;;;10.82;5.45;;;;;;;5.32;100.00;99890.38;5174069;27;20054;-51
2022/10/15 02:12:43;;;;;;;12.98;5.68;;;;;;;5.45;100.00;99883.22;5174108;27;20561;-51
2022/10/15 02:15:14;;;;;;;9.38;5.28;;;;;;;5.35;100.00;99887.03;5174046;27;20405;-48
2022/10/15 02:17:45;;;;;;;12.75;5.85;;;;;;;5.36;100.00;99875.81;5173851;27;20050;-49
2022/10/15 02:20:18;;;;;;;14.45;5.13;;;;;;;5.36;100.00;99867.66;5173740;27;20054;-50
2022/10/15 02:22:49;;;;;;;11.13;5.10;;;;;;;5.35;100.00;99851.69;5174230;27;20222;-52
2022/10/15 02:25:20;;;;;;;11.10;5.57;;;;;;;5.22;100.00;99845.22;5173877;27;20084;-50
2022/10/15 02:27:49;;;;;;;14.50;4.97;;;;;;;5.35;100.00;99827.22;5173732;27;20072;-49
2022/10/15 02:30:17;;;;;;;16.88;6.30;;;;;;;5.36;100.00;99829.59;5173552;27;20042;-50
2022/10/15 02:32:47;;;;;;;12.95;5.57;;;;;;;5.19;100.00;99843.91;5173762;27;20051;-50
2022/10/15 02:35:14;;;;;;;8.30;5.15;;;;;;;5.34;100.00;99833.78;5173595;27;20060;-50
2022/10/15 02:37:46;;;;;;;10.68;5.10;;;;;;;5.32;100.00;99844.16;5173847;27;20101;-48
2022/10/15 02:40:12;;;;;;;12.75;5.85;;;;;;;5.40;100.00;99829.81;5173710;27;20049;-50
2022/10/15 02:42:39;;;;;;;11.68;5.15;;;;;;;5.27;100.00;99838.84;5173483;27;20420;-50
2022/10/15 02:45:06;;;;;;;12.88;6.45;;;;;;;5.09;100.00;99827.88;5173480;27;20043;-47
2022/10/15 02:47:33;;;;;;;15.32;5.88;;;;;;;5.21;100.00;99810.19;5173417;27;20170;-48
2022/10/15 02:49:59;;;;;;;18.35;5.22;;;;;;;5.32;100.00;99808.81;5173179;27;20058;-48
2022/10/15 02:52:26;;;;;;;8.75;5.38;;;;;;;5.13;100.00;99815.28;5173356;27;20050;-50
2022/10/15 02:54:52;;;;;;;15.30;5.70;;;;;;;4.99;100.00;99820.00;5173222;27;20140;-51
2022/10/15 02:57:18;;;;;;;16.00;6.43;;;;;;;5.28;100.00;99821.44;5173261;27;20103;-49
2022/10/15 02:59:45;;;;;;;12.63;5.97;;;;;;;5.16;100.00;99820.09;5173105;27;20057;-51
2022/10/15 03:02:11;;;;;;;11.52;5.75;;;;;;;4.90;100.00;99822.69;5172413;27;20046;-50
2022/10/15 03:04:38;;;;;;;13.20;5.75;;;;;;;5.19;100.00;99794.19;5173456;27;20481;-49
2022/10/15 03:07:04;;;;;;;12.38;5.43;;;;;;;5.10;100.00;99794.16;5172914;27;20046;-51
2022/10/15 03:09:31;;;;;;;12.27;6.53;;;;;;;5.13;100.00;99779.97;5172911;27;20050;-52
2022/10/15 03:11:57;;;;;;;12.20;5.72;;;;;;;5.12;100.00;99772.91;5173032;27;20050;-50
2022/10/15 03:14:23;;;;;;;17.05;6.05;;;;;;;4.87;100.00;99779.81;5172843;27;20050;-49
2022/10/15 03:16:50;;;;;;;11.68;5.97;;;;;;;5.08;100.00;99749.38;5173139;27;20042;-51
2022/10/15 03:19:16;;;;;;;18.63;6.72;;;;;;;4.92;100.00;99751.72;5173114;27;20102;-49
2022/10/15 03:21:42;;;;;;;9.18;4.65;;;;;;;4.94;100.00;99750.28;5172717;27;20573;-48
2022/10/15 03:24:08;;;;;;;11.00;5.93;;;;;;;5.09;100.00;99746.34;5172968;27;20058;-49
2022/10/15 03:26:35;;;;;;;14.95;6.20;;;;;;;5.17;100.00;99756.47;5173055;27;20136;-48
2022/10/15 03:29:01;;;;;;;15.82;7.10;;;;;;;5.01;100.00;99757.19;5172701;27;20137;-48
2022/10/15 03:31:28;;;;;;;13.95;6.85;;;;;;;4.86;100.00;99769.25;5172989;27;20072;-51
2022/10/15 03:33:54;;;;;;;16.40;6.82;;;;;;;5.02;100.00;99759.59;5172603;27;20050;-50
2022/10/15 03:36:20;;;;;;;11.32;6.03;;;;;;;4.95;100.00;99759.25;5172864;27;20050;-48
2022/10/15 03:38:46;;;;;;;14.85;6.50;;;;;;;5.00;100.00;99748.25;5172546;27;20078;-48
2022/10/15 03:41:13;;;;;;;10.52;6.50;;;;;;;4.94;100.00;99763.09;5172601;27;20042;-49
2022/10/15 03:43:39;;;;;;;11.98;5.93;;;;;;;4.99;100.00;99759.41;5172541;27;20046;-48
2022/10/15 03:46:06;;;;;;;13.30;7.32;;;;;;;4.86;100.00;99759.19;5172468;27;20054;-48
2022/10/15 03:48:32;;;;;;;15.48;6.47;;;;;;;4.95;100.00;99772.81;5172276;27;20505;-49
2022/10/15 03:50:58;;;;;;;15.80;6.53;;;;;;;5.02;100.00;99773.19;5172316;27;20050;-49
2022/10/15 03:53:24;;;;;;;13.35;6.80;;;;;;;5.01;100.00;99779.72;5172486;27;20145;-50
2022/10/15 03:55:51;;;;;;;15.98;7.03;;;;;;;4.95;100.00;99795.38;5172674;27;20089;-47
2022/10/15 03:58:17;;;;;;;18.67;7.10;;;;;;;4.88;100.00;99796.94;5172779;27;20404;-48
2022/10/15 04:00:44;;;;;;;16.05;6.47;;;;;;;4.69;100.00;99786.25;5172380;27;20053;-52
2022/10/15 04:03:11;;;;;;;10.85;5.78;;;;;;;4.76;100.00;99794.78;5172644;27;20053;-49
2022/10/15 04:05:37;;;;;;;16.70;8.07;;;;;;;4.85;100.00;99782.03;5172194;27;20413;-48
2022/10/15 04:08:04;;;;;;;11.77;6.00;;;;;;;4.64;100.00;99783.69;5172117;27;20057;-48
2022/10/15 04:10:30;;;;;;;11.32;6.28;;;;;;;4.70;100.00;99769.66;5172079;27;20057;-50
2022/10/15 04:12:56;;;;;;;14.73;6.57;;;;;;;4.67;100.00;99754.00;5172095;27;20057;-48
2022/10/15 04:15:22;;;;;;;13.93;6.57;;;;;;;4.78;100.00;99734.72;5174887;27;20047;-50
2022/10/15 04:17:53;;;;;;;17.50;6.18;;;;;;;4.43;100.00;99735.31;5175703;27;20107;-51
2022/10/15 04:20:19;;;;;;;18.35;6.68;;;;;;;4.64;100.00;99694.06;5176135;27;20054;-48
2022/10/15 04:22:46;;;;;;;9.13;5.93;;;;;;;4.71;100.00;99697.94;5175890;27;20054;-47
2022/10/15 04:25:12;;;;;;;14.70;6.65;;;;;;;4.67;100.00;99691.53;5176154;27;20409;-48
2022/10/15 04:27:38;;;;;;;18.10;6.65;;;;;;;4.93;100.00;99690.81;5175564;27;20050;-48
2022/10/15 04:30:05;;;;;;;16.25;5.97;;;;;;;4.89;100.00;99706.94;5175832;27;20050;-52
2022/10/15 04:32:32;;;;;;;12.40;6.30;;;;;;;4.82;100.00;99717.47;5175678;27;20054;-48
2022/10/15 04:34:58;;;;;;;14.27;6.45;;;;;;;4.82;100.00;99728.34;5175484;27;20081;-51
2022/10/15 04:37:25;;;;;;;14.15;6.20;;;;;;;4.69;100.00;99708.28;5175427;27;20054;-48
2022/10/15 04:39:51;;;;;;;11.50;6.70;;;;;;;4.68;100.00;99701.28;5175371;27;20141;-51
2022/10/15 04:42:17;;;;;;;11.13;6.15;;;;;;;4.56;100.00;99692.09;5175400;27;20083;-51
2022/10/15 04:44:43;;;;;;;11.88;5.13;;;;;;;4.78;100.00;99691.25;5175432;27;20053;-52
2022/10/15 04:47:10;;;;;;;19.30;6.28;;;;;;;4.99;100.00;99688.75;5175286;27;20532;-51
2022/10/15 04:49:36;;;;;;;14.60;6.57;;;;;;;4.80;100.00;99708.03;5175343;27;20046;-49
2022/10/15 04:52:03;;;;;;;16.25;6.28;;;;;;;5.05;100.00;99710.03;5175519;27;20507;-48
2022/10/15 04:54:29;;;;;;;13.20;6.20;;;;;;;4.98;100.00;99723.28;5175249;27;20504;-48
2022/10/15 04:56:55;;;;;;;15.80;6.15;;;;;;;4.87;100.00;99736.34;5175279;27;20049;-50
2022/10/15 04:59:22;;;;;;;9.95;5.93;;;;;;;5.10;100.00;99737.09;5175095;27;20042;-50
2022/10/15 05:01:48;;;;;;;9.88;6.13;;;;;;;4.87;100.00;99749.94;5175320;27;20050;-50
2022/10/15 05:04:14;;;;;;;17.40;6.30;;;;;;;5.03;100.00;99730.50;5174958;27;20047;-48
2022/10/15 05:06:40;;;;;;;12.45;5.53;;;;;;;4.97;100.00;99710.84;5175127;27;20462;-51
2022/10/15 05:09:07;;;;;;;10.98;5.30;;;;;;;4.90;100.00;99705.06;5174904;27;20099;-49
2022/10/15 05:11:36;;;;;;;12.43;5.90;;;;;;;5.39;100.00;99698.47;5175062;27;20494;-48
2022/10/15 05:14:03;;;;;;;14.90;6.50;;;;;;;5.12;100.00;99699.50;5174740;27;20050;-50
2022/10/15 05:16:30;;;;;;;11.43;5.47;;;;;;;5.14;100.00;99689.13;5175152;27;20050;-49
2022/10/15 05:18:57;;;;;;;8.40;5.43;;;;;;;5.08;100.00;99690.41;5175036;27;20042;-49
2022/10/15 05:21:24;;;;;;;10.85;5.60;;;;;;;5.02;100.00;99678.06;5174862;27;20057;-51
2022/10/15 05:23:50;;;;;;;13.35;5.45;;;;;;;5.13;100.00;99657.66;5175061;27;20072;-48
2022/10/15 05:26:19;;;;;;;13.75;5.97;;;;;;;5.61;100.00;99648.59;5174090;27;20133;-49
2022/10/15 05:28:46;;;;;;;7.22;4.95;;;;;;;5.67;100.00;99671.00;5175031;27;20110;-48
2022/10/15 05:31:14;;;;;;;11.77;5.20;;;;;;;6.00;100.00;99695.00;5174503;27;20069;-48
2022/10/15 05:33:41;;;;;;;13.98;4.82;;;;;;;6.62;100.00;99746.34;5174661;27;20054;-48
2022/10/15 05:36:10;;;;;;;9.30;4.43;;;;;;;6.59;100.00;99834.97;5174408;27;20053;-48
2022/10/15 05:38:36;;;;;;;7.00;4.32;;;;;;;6.74;100.00;99911.91;5174451;27;20103;-50
2022/10/15 05:41:02;;;;;;;8.60;4.85;;;;;;;7.21;100.00;99950.19;5174323;27;20053;-49
2022/10/15 05:43:29;;;;;;;10.45;4.88;;;;;;;7.03;100.00;99979.38;5174439;27;20057;-48
2022/10/15 05:45:56;;;;;;;9.48;3.97;;;;;;;7.40;100.00;99988.06;5174435;27;20057;-49
2022/10/15 05:48:22;;;;;;;9.30;4.47;;;;;;;7.91;100.00;99970.72;5174390;27;20162;-52
2022/10/15 05:50:48;;;;;;;8.23;4.45;;;;;;;8.02;100.00;99944.63;5174534;27;20057;-53
2022/10/15 05:53:15;;;;;;;8.48;4.03;;;;;;;7.64;100.00;99867.44;5174158;27;20054;-49
2022/10/15 05:55:41;;;;;;;9.55;3.95;;;;;;;7.92;100.00;99851.38;5174494;27;20067;-52
2022/10/15 05:58:07;;;;;;;9.48;4.05;;;;;;;8.25;100.00;99766.81;5174026;27;20141;-50
2022/10/15 06:00:35;;;;;;;8.50;4.22;;;;;;;8.72;100.00;99744.69;5174082;27;20140;-49
2022/10/15 06:03:01;;;;;;;6.25;4.47;;;;;;;8.64;100.00;99637.06;5174087;27;20412;-48
2022/10/15 06:05:28;;;;;;;9.80;4.53;;;;;;;8.70;100.00;99555.66;5174041;27;20046;-49
2022/10/15 06:07:55;;;;;;;9.15;4.20;;;;;;;8.91;100.00;99523.50;5174026;27;20569;-50
2022/10/15 06:10:21;;;;;;;8.65;4.28;;;;;;;9.27;100.00;99447.94;5173759;27;20062;-52
2022/10/15 06:12:49;;;;;;;11.65;4.70;;;;;;;9.86;100.00;99173.31;5173919;27;20088;-52
2022/10/15 06:15:16;;;;;;;9.00;4.03;;;;;;;9.38;100.00;99189.06;5173900;27;20050;-50
2022/10/15 06:17:43;;;;;;;16.00;5.30;;;;;;;9.10;100.00;99172.81;5174140;27;20047;-51
2022/10/15 06:20:10;;;;;;;11.57;4.82;;;;;;;10.09;100.00;99164.34;5173758;27;20070;-53
2022/10/15 06:22:37;;;;;;;8.82;5.40;;;;;;;10.18;100.00;99021.69;5173746;27;20079;-52
2022/10/15 06:25:03;;;;;;;9.00;4.88;;;;;;;10.53;100.00;98926.38;5173578;27;20046;-49
2022/10/15 06:27:32;;;;;;;8.57;4.38;;;;;;;9.78;100.00;98837.56;5173870;27;20470;-49
2022/10/15 06:29:58;;;;;;;12.65;4.70;;;;;;;9.36;100.00;99019.03;5173471;27;20050;-51
2022/10/15 06:32:24;;;;;;;12.80;5.60;;;;;;;10.63;100.00;98897.53;5173997;27;20042;-50
2022/10/15 06:34:51;;;;;;;9.23;5.10;;;;;;;10.41;100.00;98753.94;5173624;27;20042;-53
2022/10/15 06:37:17;;;;;;;10.20;5.43;;;;;;;11.46;100.00;98729.06;5172487;27;20050;-50
2022/10/15 06:39:45;;;;;;;11.15;5.57;;;;;;;11.40;100.00;98649.06;5173492;27;20424;-50
2022/10/15 06:42:11;;;;;;;14.30;5.88;;;;;;;11.04;100.00;98719.34;5173423;27;20060;-50
2022/10/15 06:44:38;;;;;;;16.65;5.00;;;;;;;10.84;100.00;98727.78;5173696;27;20048;-51
2022/10/15 06:47:04;;;;;;;15.15;5.53;;;;;;;10.56;100.00;98754.88;5173214;27;20046;-51
2022/10/15 06:49:30;;;;;;;11.93;7.95;;;;;;;10.61;100.00;98749.09;5173546;27;20469;-50
2022/10/15 06:51:58;;;;;;;12.38;5.72;;;;;;;11.28;100.00;98685.81;5173007;27;20080;-50
2022/10/15 06:54:25;;;;;;;13.52;8.48;;;;;;;12.97;100.00;98606.72;5173390;27;20060;-51
2022/10/15 06:56:51;;;;;;;10.32;5.55;;;;;;;12.37;100.00;98584.31;5173261;27;20058;-52
2022/10/15 06:59:17;;;;;;;12.13;5.68;;;;;;;11.04;100.00;98593.16;5173109;27;20472;-53
2022/10/15 07:01:43;;;;;;;11.68;6.05;;;;;;;11.04;100.00;98642.53;5173156;27;20060;-53
2022/10/15 07:04:09;;;;;;;12.00;5.45;;;;;;;11.45;100.00;98695.34;5173086;27;20050;-51
2022/10/15 07:06:36;;;;;;;16.73;6.10;;;;;;;11.64;100.00;98650.38;5173437;27;20050;-50
2022/10/15 07:09:03;;;;;;;15.55;6.20;;;;;;;11.75;100.00;98610.00;5173260;27;20068;-50
2022/10/15 07:11:29;;;;;;;16.40;6.20;;;;;;;11.34;100.00;98705.47;5173339;27;20227;-53
2022/10/15 07:13:56;;;;;;;11.60;5.78;;;;;;;11.47;100.00;98678.50;5173086;27;20065;-52
2022/10/15 07:16:23;;;;;;;10.02;5.50;;;;;;;11.57;100.00;98657.78;5173306;27;20049;-52
2022/10/15 07:18:49;;;;;;;12.10;7.97;;;;;;;11.50;100.00;98644.81;5172867;27;20106;-54
2022/10/15 07:21:16;;;;;;;13.18;8.43;;;;;;;11.25;100.00;98735.19;5173101;27;20102;-54
2022/10/15 07:23:42;;;;;;;10.50;5.72;;;;;;;10.93;100.00;98702.81;5172925;27;20488;-54
2022/10/15 07:26:09;;;;;;;16.52;6.32;;;;;;;12.39;100.00;98704.88;5172638;27;20102;-53
2022/10/15 07:28:35;;;;;;;10.07;5.40;;;;;;;12.04;100.00;98623.13;5172494;27;20050;-54
2022/10/15 07:31:03;;;;;;;18.02;6.03;;;;;;;12.99;100.00;98609.84;5173011;27;20074;-52
2022/10/15 07:33:29;;;;;;;12.38;6.18;;;;;;;11.91;100.00;98600.69;5172563;27;20057;-54
2022/10/15 07:35:56;;;;;;;18.85;7.20;;;;;;;12.13;100.00;98665.53;5172747;27;20098;-50
2022/10/15 07:38:22;;;;;;;12.98;6.43;;;;;;;11.62;100.00;98704.88;5172579;27;20516;-53
2022/10/15 07:40:48;;;;;;;14.15;5.65;;;;;;;11.69;100.00;98735.13;5172584;27;20072;-51
2022/10/15 07:43:15;;;;;;;13.00;6.32;;;;;;;12.52;100.00;98744.56;5172726;27;20153;-51
2022/10/15 07:45:46;;;;;;;14.25;6.13;;;;;;;11.11;100.00;98746.84;5172517;27;20050;-54
2022/10/15 07:48:12;;;;;;;14.23;5.90;;;;;;;10.66;100.00;98929.66;5172177;27;20136;-53
2022/10/15 07:50:38;;;;;;;16.20;10.00;;;;;;;10.94;100.00;99058.19;5172059;27;20050;-51
2022/10/15 07:53:05;;;;;;;11.73;7.20;;;;;;;11.41;100.00;99087.03;5172380;27;20469;-54
2022/10/15 07:55:31;;;;;;;13.30;6.70;;;;;;;11.44;100.00;98973.75;5172335;27;20057;-52
2022/10/15 07:57:57;;;;;;;12.75;6.95;;;;;;;11.28;100.00;98986.91;5172193;27;20137;-54
2022/10/15 08:00:25;;;;;;;22.50;8.13;;;;;;;12.33;100.00;98909.81;5172106;27;20513;-50
2022/10/15 08:02:51;;;;;;;15.05;7.03;;;;;;;11.99;100.00;98786.34;5172356;27;20103;-53
2022/10/15 08:05:17;;;;;;;12.18;7.15;;;;;;;12.13;100.00;98747.97;5172544;27;20050;-52
2022/10/15 08:07:43;;;;;;;15.82;6.75;;;;;;;13.08;100.00;98666.06;5172026;27;20139;-53
2022/10/15 08:10:10;;;;;;;19.13;7.88;;;;;;;13.82;100.00;98614.00;5172341;27;20053;-54
2022/10/15 08:12:36;;;;;;;16.30;7.28;;;;;;;14.61;100.00;98603.34;5172029;27;20046;-52
2022/10/15 08:15:03;;;;;;;16.70;7.25;;;;;;;14.59;100.00;98647.91;5172411;27;20046;-53
2022/10/15 08:17:31;;;;;;;14.05;6.57;;;;;;;14.25;100.00;98641.38;5172012;27;20103;-54
2022/10/15 08:19:57;;;;;;;15.48;7.10;;;;;;;13.51;100.00;98601.94;5172137;27;20497;-52
2022/10/15 08:22:23;;;;;;;15.88;9.48;;;;;;;13.63;100.00;98594.03;5171846;27;20042;-54
2022/10/15 08:24:51;;;;;;;15.10;10.15;;;;;;;13.63;100.00;98607.81;5171930;27;20501;-54
2022/10/15 08:27:17;;;;;;;14.40;7.15;;;;;;;13.28;100.00;98614.19;5171883;27;20046;-54
2022/10/15 08:29:43;;;;;;;16.90;10.10;;;;;;;13.65;100.00;98604.63;5171809;27;20052;-52
2022/10/15 08:32:09;;;;;;;13.75;7.13;;;;;;;15.00;100.00;98602.28;5171623;27;20058;-54
2022/10/15 08:34:36;;;;;;;13.02;9.20;;;;;;;15.69;100.00;98650.13;5171808;27;20046;-55
2022/10/15 08:37:03;;;;;;;13.82;10.05;;;;;;;14.82;100.00;98625.25;5172260;27;20533;-54
2022/10/15 08:39:29;;;;;;;13.98;6.65;;;;;;;14.86;100.00;98616.16;5171633;27;20050;-54
2022/10/15 08:41:58;;;;;;;19.08;7.53;;;;;;;15.40;100.00;98586.09;5171904;27;20050;-56
2022/10/15 08:44:28;;;;;;;14.13;9.48;;;;;;;15.89;100.00;98633.69;5171719;27;20050;-54
2022/10/15 08:47:02;;;;;;;14.48;6.65;;;;;;;15.66;100.00;98697.88;5171861;27;20103;-55
2022/10/15 08:49:43;;;;;;;12.85;6.95;;;;;;;15.77;100.00;98637.81;5171775;27;20042;-55
2022/10/15 08:52:20;;;;;;;15.70;6.93;;;;;;;15.46;100.00;98654.28;5171407;27;20077;-55
2022/10/15 08:54:46;;;;;;;9.75;6.10;;;;;;;15.75;100.00;98659.53;5171572;27;20420;-54
2022/10/15 08:57:21;;;;;;;12.23;6.80;;;;;;;15.88;100.00;98659.78;5171620;27;20046;-55
2022/10/15 08:59:53;;;;;;;22.65;7.05;;;;;;;15.43;100.00;98662.63;5171728;27;20046;-55
2022/10/15 09:02:25;;;;;;;10.85;6.95;;;;;;;15.13;100.00;98671.53;5175403;27;20454;-55
2022/10/15 09:05:01;;;;;;;15.75;7.35;;;;;;;15.77;100.00;98704.13;5175042;27;20133;-55
2022/10/15 09:07:34;;;;;;;14.15;7.15;;;;;;;14.56;100.00;98686.53;5174843;27;20057;-55
2022/10/15 09:10:13;;;;;;;11.75;6.32;;;;;;;15.40;100.00;98625.53;5175016;27;20501;-55
2022/10/15 09:12:50;;;;;;;15.38;6.65;;;;;;;13.89;100.00;98578.16;5175223;27;20050;-55
2022/10/15 09:15:19;;;;;;;16.25;6.25;;;;;;;13.93;100.00;98587.22;5174702;27;20067;-55
2022/10/15 09:17:48;;;;;;;13.32;6.90;;;;;;;13.70;100.00;98587.72;5175128;27;20049;-54
2022/10/15 09:20:18;;;;;;;10.68;6.22;;;;;;;13.45;100.00;98587.00;5174682;27;20050;-54
2022/10/15 09:22:48;;;;;;;11.95;6.38;;;;;;;14.28;100.00;98596.47;5175107;27;20046;-54
2022/10/15 09:25:16;;;;;;;13.23;6.32;;;;;;;14.21;100.00;98577.22;5174646;27;20081;-54
2022/10/15 09:27:45;;;;;;;20.08;6.30;;;;;;;14.65;100.00;98575.75;5174587;27;20050;-55
2022/10/15 09:30:25;;;;;;;16.63;9.32;;;;;;;14.53;100.00;98607.38;5174790;27;20050;-55
2022/10/15 09:32:55;;;;;;;10.68;6.60;;;;;;;15.25;100.00;98579.94;5174544;27;20528;-53
2022/10/15 09:35:26;;;;;;;20.83;6.45;;;;;;;14.77;100.00;98583.53;5174952;27;20875;-54
2022/10/15 09:37:58;;;;;;;13.25;6.70;;;;;;;15.49;100.00;98602.94;5174410;27;20056;-54
2022/10/15 09:40:38;;;;;;;12.75;6.28;;;;;;;15.46;100.00;98632.19;5174824;27;20053;-55
2022/10/15 09:43:05;;;;;;;13.95;6.28;;;;;;;16.03;100.00;98641.03;5174235;27;20042;-55
2022/10/15 09:45:31;;;;;;;11.82;8.13;;;;;;;15.38;100.00;98627.91;5174580;27;20488;-54
2022/10/15 09:47:59;;;;;;;14.60;5.70;;;;;;;16.06;100.00;98635.50;5174535;27;20107;-55
2022/10/15 09:50:30;;;;;;;12.40;6.03;;;;;;;15.31;100.00;98639.03;5174002;27;20054;-53
2022/10/15 09:53:05;;;;;;;11.05;6.07;;;;;;;15.11;100.00;98585.59;5174334;27;20625;-55
2022/10/15 09:55:42;;;;;;;10.40;5.22;;;;;;;15.12;100.00;98587.16;5174113;27;20046;-56
2022/10/15 09:58:14;;;;;;;10.82;6.07;;;;;;;14.45;100.00;98567.19;5174374;27;20094;-54
2022/10/15 10:00:54;;;;;;;8.32;4.88;;;;;;;14.77;100.00;98562.25;5173907;27;20532;-53
2022/10/15 10:03:22;;;;;;;9.68;5.57;;;;;;;15.09;100.00;98601.78;5174638;27;20105;-55
2022/10/15 10:05:50;;;;;;;16.50;7.93;;;;;;;14.61;100.00;98602.59;5174262;27;20541;-55
2022/10/15 10:08:20;;;;;;;13.07;5.53;;;;;;;14.84;100.00;98600.03;5174005;27;20528;-52
2022/10/15 10:10:54;;;;;;;12.88;8.32;;;;;;;15.17;100.00;98579.22;5173975;27;20075;-55
2022/10/15 10:13:23;;;;;;;10.13;5.72;;;;;;;15.10;100.00;98606.91;5173687;27;20088;-55
2022/10/15 10:15:52;;;;;;;15.65;7.90;;;;;;;14.52;100.00;98576.22;5173821;27;20050;-54
2022/10/15 10:18:20;;;;;;;17.60;8.25;;;;;;;14.27;100.00;98579.16;5173919;27;20094;-55
2022/10/15 10:20:56;;;;;;;14.88;7.75;;;;;;;14.43;100.00;98575.09;5174007;27;20050;-54
2022/10/15 10:23:24;;;;;;;13.48;5.97;;;;;;;13.95;100.00;98575.78;5173696;27;20106;-55
2022/10/15 10:25:51;;;;;;;11.18;6.50;;;;;;;14.02;100.00;98570.22;5173754;27;20050;-53
2022/10/15 10:28:26;;;;;;;12.00;5.20;;;;;;;14.29;100.00;98556.66;5173673;27;20050;-52
2022/10/15 10:31:02;;;;;;;13.65;8.68;;;;;;;13.77;100.00;98567.63;5173438;27;20057;-53
2022/10/15 10:33:30;;;;;;;18.55;6.07;;;;;;;14.15;100.00;98571.34;5173925;27;20053;-54
2022/10/15 10:35:58;;;;;;;12.63;5.43;;;;;;;13.85;100.00;98564.41;5173644;27;20437;-51
2022/10/15 10:38:27;;;;;;;15.43;5.78;;;;;;;13.75;100.00;98583.75;5173710;27;20046;-54
2022/10/15 10:40:56;;;;;;;16.45;6.70;;;;;;;13.98;100.00;98586.00;5173506;27;20098;-55
2022/10/15 10:43:27;;;;;;;14.60;5.75;;;;;;;14.34;100.00;98572.78;5173787;27;20050;-54
2022/10/15 10:45:56;;;;;;;9.35;5.28;;;;;;;14.16;100.00;98583.13;5173399;27;20046;-54
2022/10/15 10:48:25;;;;;;;14.07;6.18;;;;;;;14.83;100.00;98554.31;5173359;27;20056;-50
2022/10/15 10:51:04;;;;;;;18.40;8.80;;;;;;;15.13;100.00;98561.09;5173132;27;20110;-54
2022/10/15 10:53:30;;;;;;;9.02;5.00;;;;;;;15.15;100.00;98562.28;5173243;27;20046;-51
2022/10/15 10:55:57;;;;;;;12.35;4.80;;;;;;;14.72;100.00;98576.47;5173415;27;20046;-55
2022/10/15 10:58:26;;;;;;;13.93;5.93;;;;;;;14.47;100.00;98564.84;5173282;27;20098;-55
2022/10/15 11:00:54;;;;;;;14.32;5.22;;;;;;;14.59;100.00;98562.41;5173468;27;20056;-56
2022/10/15 11:03:26;;;;;;;13.23;6.25;;;;;;;13.66;100.00;98567.63;5173247;27;20046;-51
2022/10/15 11:05:58;;;;;;;13.68;5.72;;;;;;;14.13;100.00;98557.19;5173263;27;20057;-50
2022/10/15 11:08:32;;;;;;;9.23;4.80;;;;;;;14.50;100.00;98564.03;5173008;27;20497;-51
2022/10/15 11:11:07;;;;;;;11.32;5.05;;;;;;;13.57;100.00;98559.03;5173016;27;20054;-51
2022/10/15 11:13:47;;;;;;;11.65;5.30;;;;;;;13.90;100.00;98554.94;5172998;27;20519;-51
2022/10/15 11:16:20;;;;;;;15.43;5.32;;;;;;;13.73;100.00;98556.63;5172973;27;20516;-52
2022/10/15 11:18:56;;;;;;;11.30;5.13;;;;;;;13.93;100.00;98548.63;5173059;27;20050;-51
2022/10/15 11:21:32;;;;;;;15.20;4.95;;;;;;;13.95;100.00;98549.00;5172819;27;20054;-52
2022/10/15 11:24:11;;;;;;;13.48;5.30;;;;;;;14.45;100.00;98547.91;5172688;27;20046;-50
2022/10/15 11:26:50;;;;;;;12.45;5.78;;;;;;;14.09;100.00;98551.69;5172933;27;20050;-52
2022/10/15 11:29:24;;;;;;;9.10;5.00;;;;;;;13.77;100.00;98543.59;5172904;27;20042;-52
2022/10/15 11:31:57;;;;;;;11.23;5.70;;;;;;;13.83;100.00;98541.22;5172811;27;20057;-51